sensor_id;sensor_type;location;lat;lon;timestamp;pressure;altitude;pressure_sealevel;temperature;humidity
18765;BME280;9511;54.242;12.448;2023-03-14T04:04:31;98504.69;;;10.14;92.24
18765;BME280;9511;54.242;12.448;2023-03-14T04:07:01;98494.97;;;10.15;92.02
18765;BME280;9511;54.242;12.448;2023-03-14T04:09:28;98490.63;;;10.12;91.85
18765;BME280;9511;54.242;12.448;2023-03-14T04:12:14;98494.97;;;10.15;91.40
18765;BME280;9511;54.242;12.448;2023-03-14T04:15:08;98492.34;;;10.16;91.23
18765;BME280;9511;54.242;12.448;2023-03-14T04:17:38;98489.66;;;10.21;90.81
18765;BME280;9511;54.242;12.448;2023-03-14T04:20:08;98495.81;;;10.24;90.39
18765;BME280;9511;54.242;12.448;2023-03-14T04:22:37;98499.31;;;10.25;90.24
18765;BME280;9511;54.242;12.448;2023-03-14T04:25:06;98479.94;;;10.23;90.21
18765;BME280;9511;54.242;12.448;2023-03-14T04:27:39;98475.56;;;10.19;nan
18765;BME280;9511;54.242;12.448;2023-03-14T04:30:15;98440.47;;;10.07;91.48
18765;BME280;9511;54.242;12.448;2023-03-14T04:32:49;98429.16;;;9.98;92.68
18765;BME280;9511;54.242;12.448;2023-03-14T04:35:20;98421.31;;;9.85;92.75
18765;BME280;9511;54.242;12.448;2023-03-14T04:37:50;98423.09;;;9.83;92.80
18765;BME280;9511;54.242;12.448;2023-03-14T04:40:19;98417.00;;;9.77;92.23
18765;BME280;9511;54.242;12.448;2023-03-14T04:42:48;98413.56;;;9.67;92.26
18765;BME280;9511;54.242;12.448;2023-03-14T04:45:22;98413.66;;;9.56;92.69
18765;BME280;9511;54.242;12.448;2023-03-14T04:47:50;98417.28;;;9.48;93.06
18765;BME280;9511;54.242;12.448;2023-03-14T04:50:20;98418.22;;;9.41;93.74
18765;BME280;9511;54.242;12.448;2023-03-14T04:52:48;98416.47;;;9.37;94.62
18765;BME280;9511;54.242;12.448;2023-03-14T04:55:16;98415.63;;;9.31;95.04
18765;BME280;9511;54.242;12.448;2023-03-14T04:57:43;98420.09;;;9.22;95.96
18765;BME280;9511;54.242;12.448;2023-03-14T05:00:11;98418.34;;;9.22;96.63
18765;BME280;9511;54.242;12.448;2023-03-14T05:02:51;98410.47;;;9.16;97.26
18765;BME280;9511;54.242;12.448;2023-03-14T05:05:30;98403.53;;;9.06;98.00
18765;BME280;9511;54.242;12.448;2023-03-14T05:08:09;98408.75;;;9.12;98.83
18765;BME280;9511;54.242;12.448;2023-03-14T05:10:51;98401.75;;;9.05;99.51
18765;BME280;9511;54.242;12.448;2023-03-14T05:13:34;98403.53;;;9.03;99.71
18765;BME280;9511;54.242;12.448;2023-03-14T05:16:17;98405.22;;;9.13;99.51
18765;BME280;9511;54.242;12.448;2023-03-14T05:18:52;98410.47;;;9.19;98.67
18765;BME280;9511;54.242;12.448;2023-03-14T05:21:41;98406.09;;;9.15;98.58
18765;BME280;9511;54.242;12.448;2023-03-14T05:24:32;98428.97;;;9.13;98.76
18765;BME280;9511;54.242;12.448;2023-03-14T05:27:10;98415.75;;;9.18;98.20
18765;BME280;9511;54.242;12.448;2023-03-14T05:29:58;98419.25;;;9.20;98.39
18765;BME280;9511;54.242;12.448;2023-03-14T05:32:42;98417.44;;;9.26;97.70
18765;BME280;9511;54.242;12.448;2023-03-14T05:35:18;98406.03;;;9.24;98.04
18765;BME280;9511;54.242;12.448;2023-03-14T05:37:54;98401.59;;;9.29;97.60
18765;BME280;9511;54.242;12.448;2023-03-14T05:40:24;98398.94;;;9.28;97.42
18765;BME280;9511;54.242;12.448;2023-03-14T05:43:09;98392.78;;;9.27;97.39
18765;BME280;9511;54.242;12.448;2023-03-14T05:45:50;98391.94;;;9.25;97.23
18765;BME280;9511;54.242;12.448;2023-03-14T05:48:47;98395.47;;;9.26;96.94
18765;BME280;9511;54.242;12.448;2023-03-14T05:51:41;98388.44;;;9.25;96.89
18765;BME280;9511;54.242;12.448;2023-03-14T05:54:27;98376.16;;;9.21;97.23
18765;BME280;9511;54.242;12.448;2023-03-14T05:57:14;98394.59;;;9.22;96.98
18765;BME280;9511;54.242;12.448;2023-03-14T06:00:13;98386.69;;;9.22;97.04
18765;BME280;9511;54.242;12.448;2023-03-14T06:02:48;98392.78;;;9.27;96.80
18765;BME280;9511;54.242;12.448;2023-03-14T06:05:22;98387.56;;;9.21;96.84
18765;BME280;9511;54.242;12.448;2023-03-14T06:07:55;98385.81;;;9.22;97.10
18765;BME280;9511;54.242;12.448;2023-03-14T06:10:23;98382.28;;;9.21;97.28
18765;BME280;9511;54.242;12.448;2023-03-14T06:12:51;98393.75;;;9.20;97.00
18765;BME280;9511;54.242;12.448;2023-03-14T06:15:20;98389.34;;;9.19;97.04
18765;BME280;9511;54.242;12.448;2023-03-14T06:17:50;98401.63;;;9.22;97.20
18765;BME280;9511;54.242;12.448;2023-03-14T06:20:18;98395.44;;;9.29;97.16
18765;BME280;9511;54.242;12.448;2023-03-14T06:22:45;98395.38;;;9.34;96.70
18765;BME280;9511;54.242;12.448;2023-03-14T06:25:13;98407.69;;;9.36;96.68
18765;BME280;9511;54.242;12.448;2023-03-14T06:27:44;98392.63;;;9.46;96.27
18765;BME280;9511;54.242;12.448;2023-03-14T06:30:12;98386.44;;;9.51;95.90
18765;BME280;9511;54.242;12.448;2023-03-14T06:32:39;98385.50;;;9.57;95.27
18765;BME280;9511;54.242;12.448;2023-03-14T06:35:10;98381.09;;;9.57;95.15
18765;BME280;9511;54.242;12.448;2023-03-14T06:37:41;98385.50;;;9.60;94.73
18765;BME280;9511;54.242;12.448;2023-03-14T06:40:09;98380.13;;;9.69;94.46
18765;BME280;9511;54.242;12.448;2023-03-14T06:42:57;98384.50;;;9.72;94.05
18765;BME280;9511;54.242;12.448;2023-03-14T06:45:27;98389.69;;;9.79;93.64
18765;BME280;9511;54.242;12.448;2023-03-14T06:47:56;98384.41;;;9.82;93.37
18765;BME280;9511;54.242;12.448;2023-03-14T06:50:30;98382.53;;;9.92;93.47
18765;BME280;9511;54.242;12.448;2023-03-14T06:52:58;98378.09;;;9.96;92.83
18765;BME280;9511;54.242;12.448;2023-03-14T06:55:26;98375.41;;;10.00;93.03
18765;BME280;9511;54.242;12.448;2023-03-14T06:57:54;98389.31;;;10.15;92.62
18765;BME280;9511;54.242;12.448;2023-03-14T07:00:23;98387.47;;;10.24;92.39
18765;BME280;9511;54.242;12.448;2023-03-14T07:02:54;98386.56;;;10.28;91.93
18765;BME280;9511;54.242;12.448;2023-03-14T07:05:31;98389.13;;;10.34;91.19
18765;BME280;9511;54.242;12.448;2023-03-14T07:07:58;98385.56;;;10.39;91.16
18765;BME280;9511;54.242;12.448;2023-03-14T07:10:26;98395.09;;;10.49;90.89
18765;BME280;9511;54.242;12.448;2023-03-14T07:12:53;98398.63;;;10.51;90.60
18765;BME280;9511;54.242;12.448;2023-03-14T07:15:24;98393.31;;;10.52;90.46
18765;BME280;9511;54.242;12.448;2023-03-14T07:17:56;98394.16;;;10.54;90.15
18765;BME280;9511;54.242;12.448;2023-03-14T07:20:24;98392.38;;;10.56;89.80
18765;BME280;9511;54.242;12.448;2023-03-14T07:22:52;98402.09;;;10.56;90.00
18765;BME280;9511;54.242;12.448;2023-03-14T07:25:30;98389.75;;;10.53;89.45
18765;BME280;9511;54.242;12.448;2023-03-14T07:27:58;98383.59;;;10.56;89.74
18765;BME280;9511;54.242;12.448;2023-03-14T07:30:27;98381.78;;;10.58;89.09
18765;BME280;9511;54.242;12.448;2023-03-14T07:32:55;98400.25;;;10.61;89.08
18765;BME280;9511;54.242;12.448;2023-03-14T07:35:24;98386.91;;;10.70;88.69
18765;BME280;9511;54.242;12.448;2023-03-14T07:37:52;98392.88;;;10.84;88.16
18765;BME280;9511;54.242;12.448;2023-03-14T07:40:27;98403.19;;;11.03;87.94
18765;BME280;9511;54.242;12.448;2023-03-14T07:42:55;98401.47;;;11.02;87.21
18765;BME280;9511;54.242;12.448;2023-03-14T07:45:28;98419.09;;;11.00;87.12
18765;BME280;9511;54.242;12.448;2023-03-14T07:47:55;98415.72;;;10.92;86.72
18765;BME280;9511;54.242;12.448;2023-03-14T07:50:23;98410.50;;;10.85;87.13
18765;BME280;9511;54.242;12.448;2023-03-14T07:52:51;98422.16;;;10.71;87.05
18765;BME280;9511;54.242;12.448;2023-03-14T07:55:18;98417.00;;;10.61;87.25
18765;BME280;9511;54.242;12.448;2023-03-14T07:57:45;98420.47;;;10.63;88.13
18765;BME280;9511;54.242;12.448;2023-03-14T08:00:13;98426.72;;;10.58;88.41
18765;BME280;9511;54.242;12.448;2023-03-14T08:02:42;98429.50;;;10.47;89.94
18765;BME280;9511;54.242;12.448;2023-03-14T08:05:10;98411.19;;;10.30;90.85
18765;BME280;9511;54.242;12.448;2023-03-14T08:07:37;98439.66;;;10.04;92.38
18765;BME280;9511;54.242;12.448;2023-03-14T08:10:05;98451.06;;;10.03;94.25
18765;BME280;9511;54.242;12.448;2023-03-14T08:12:33;98448.56;;;9.91;96.00
18765;BME280;9511;54.242;12.448;2023-03-14T08:15:00;98439.00;;;9.77;97.55
18765;BME280;9511;54.242;12.448;2023-03-14T08:17:28;98439.84;;;9.79;98.62
18765;BME280;9511;54.242;12.448;2023-03-14T08:19:56;98436.41;;;9.73;100.00
18765;BME280;9511;54.242;12.448;2023-03-14T08:22:24;98430.28;;;9.71;100.00
18765;BME280;9511;54.242;12.448;2023-03-14T08:24:51;98432.06;;;9.67;100.00
18765;BME280;9511;54.242;12.448;2023-03-14T08:27:18;98439.19;;;9.56;100.00
18765;BME280;9511;54.242;12.448;2023-03-14T08:29:46;98428.69;;;9.50;100.00
18765;BME280;9511;54.242;12.448;2023-03-14T08:32:13;98443.69;;;9.46;100.00
18765;BME280;9511;54.242;12.448;2023-03-14T08:34:41;98425.31;;;9.32;100.00
18765;BME280;9511;54.242;12.448;2023-03-14T08:37:11;98442.94;;;9.29;100.00
18765;BME280;9511;54.242;12.448;2023-03-14T08:39:39;98431.50;;;9.25;100.00
18765;BME280;9511;54.242;12.448;2023-03-14T08:42:06;98435.88;;;9.29;100.00
18765;BME280;9511;54.242;12.448;2023-03-14T08:44:33;98444.66;;;9.31;100.00
18765;BME280;9511;54.242;12.448;2023-03-14T08:47:01;98446.34;;;9.39;100.00
18765;BME280;9511;54.242;12.448;2023-03-14T08:49:28;98435.78;;;9.40;100.00
18765;BME280;9511;54.242;12.448;2023-03-14T08:51:55;98433.16;;;9.40;100.00
18765;BME280;9511;54.242;12.448;2023-03-14T08:54:24;98433.13;;;9.43;100.00
18765;BME280;9511;54.242;12.448;2023-03-14T08:56:51;98443.63;;;9.54;100.00
18765;BME280;9511;54.242;12.448;2023-03-14T08:59:19;98436.59;;;9.53;100.00
18765;BME280;9511;54.242;12.448;2023-03-14T09:01:46;98433.00;;;9.57;100.00
18765;BME280;9511;54.242;12.448;2023-03-14T09:04:13;98437.38;;;9.64;100.00
18765;BME280;9511;54.242;12.448;2023-03-14T09:06:41;98445.25;;;9.67;100.00
18765;BME280;9511;54.242;12.448;2023-03-14T09:09:08;98441.72;;;9.71;100.00
18765;BME280;9511;54.242;12.448;2023-03-14T09:11:37;98434.69;;;9.70;100.00
18765;BME280;9511;54.242;12.448;2023-03-14T09:14:04;98446.97;;;9.71;100.00
18765;BME280;9511;54.242;12.448;2023-03-14T09:16:33;98446.94;;;9.76;99.17
18765;BME280;9511;54.242;12.448;2023-03-14T09:19:00;98445.97;;;9.84;98.43
18765;BME280;9511;54.242;12.448;2023-03-14T09:21:28;98437.94;;;9.97;98.04
18765;BME280;9511;54.242;12.448;2023-03-14T09:23:55;98423.78;;;10.02;98.01
18765;BME280;9511;54.242;12.448;2023-03-14T09:26:22;98425.50;;;10.08;97.72
18765;BME280;9511;54.242;12.448;2023-03-14T09:28:51;98432.25;;;10.40;97.61
18765;BME280;9511;54.242;12.448;2023-03-14T09:31:18;98423.25;;;10.53;97.04
18765;BME280;9511;54.242;12.448;2023-03-14T09:33:45;98431.25;;;10.50;95.63
18765;BME280;9511;54.242;12.448;2023-03-14T09:36:13;98432.19;;;10.43;94.11
18765;BME280;9511;54.242;12.448;2023-03-14T09:38:40;98433.91;;;10.47;93.51
18765;BME280;9511;54.242;12.448;2023-03-14T09:41:13;98437.47;;;10.43;92.78
18765;BME280;9511;54.242;12.448;2023-03-14T09:43:43;98433.88;;;10.50;91.40
18765;BME280;9511;54.242;12.448;2023-03-14T09:46:14;98442.59;;;10.55;89.21
18765;BME280;9511;54.242;12.448;2023-03-14T09:48:43;98444.31;;;10.62;88.33
18765;BME280;9511;54.242;12.448;2023-03-14T09:51:13;98438.06;;;10.66;88.17
18765;BME280;9511;54.242;12.448;2023-03-14T09:53:42;98440.78;;;10.61;87.37
18765;BME280;9511;54.242;12.448;2023-03-14T09:56:13;98432.00;;;10.61;86.39
18765;BME280;9511;54.242;12.448;2023-03-14T09:58:44;98433.78;;;10.57;86.77
18765;BME280;9511;54.242;12.448;2023-03-14T10:01:16;98436.34;;;10.63;86.74
18765;BME280;9511;54.242;12.448;2023-03-14T10:03:44;98435.31;;;10.75;86.84
18765;BME280;9511;54.242;12.448;2023-03-14T10:06:12;98442.34;;;10.76;86.11
18765;BME280;9511;54.242;12.448;2023-03-14T10:08:40;98448.44;;;10.84;85.59
18765;BME280;9511;54.242;12.448;2023-03-14T10:11:15;98436.88;;;10.88;84.55
18765;BME280;9511;54.242;12.448;2023-03-14T10:14:02;98447.47;;;10.88;82.85
18765;BME280;9511;54.242;12.448;2023-03-14T10:16:34;98448.28;;;10.94;82.62
18765;BME280;9511;54.242;12.448;2023-03-14T10:19:04;98463.34;;;10.88;83.35
18765;BME280;9511;54.242;12.448;2023-03-14T10:21:36;98455.41;;;10.88;82.36
18765;BME280;9511;54.242;12.448;2023-03-14T10:24:16;98455.31;;;10.95;82.05
18765;BME280;9511;54.242;12.448;2023-03-14T10:26:47;98450.19;;;10.84;82.11
18765;BME280;9511;54.242;12.448;2023-03-14T10:29:15;98457.97;;;10.95;82.16
18765;BME280;9511;54.242;12.448;2023-03-14T10:31:50;98452.47;;;11.10;81.30
18765;BME280;9511;54.242;12.448;2023-03-14T10:34:23;98457.47;;;11.31;80.13
18765;BME280;9511;54.242;12.448;2023-03-14T10:36:56;98445.06;;;11.33;79.51
18765;BME280;9511;54.242;12.448;2023-03-14T10:39:37;98441.41;;;11.40;78.76
18765;BME280;9511;54.242;12.448;2023-03-14T10:42:16;98446.81;;;11.34;78.71
18765;BME280;9511;54.242;12.448;2023-03-14T10:44:51;98435.31;;;11.37;78.55
18765;BME280;9511;54.242;12.448;2023-03-14T10:47:24;98441.53;;;11.34;78.15
18765;BME280;9511;54.242;12.448;2023-03-14T10:49:54;98447.78;;;11.29;78.04
18765;BME280;9511;54.242;12.448;2023-03-14T10:52:23;98439.91;;;11.26;78.87
18765;BME280;9511;54.242;12.448;2023-03-14T10:54:56;98452.34;;;11.19;78.72
18765;BME280;9511;54.242;12.448;2023-03-14T10:57:25;98443.63;;;11.11;78.89
18765;BME280;9511;54.242;12.448;2023-03-14T10:59:53;98428.59;;;11.14;79.11
18765;BME280;9511;54.242;12.448;2023-03-14T11:02:34;98440.09;;;11.12;78.40
18765;BME280;9511;54.242;12.448;2023-03-14T11:05:17;98438.34;;;11.11;78.37
18765;BME280;9511;54.242;12.448;2023-03-14T11:07:48;98456.06;;;11.06;78.21
18765;BME280;9511;54.242;12.448;2023-03-14T11:10:20;98441.03;;;11.09;78.66
18765;BME280;9511;54.242;12.448;2023-03-14T11:12:59;98457.84;;;11.04;79.04
18765;BME280;9511;54.242;12.448;2023-03-14T11:15:35;98450.84;;;11.00;78.75
18765;BME280;9511;54.242;12.448;2023-03-14T11:18:31;98441.09;;;11.03;79.16
18765;BME280;9511;54.242;12.448;2023-03-14T11:21:08;98452.59;;;11.01;78.64
18765;BME280;9511;54.242;12.448;2023-03-14T11:23:43;98455.31;;;10.95;79.21
18765;BME280;9511;54.242;12.448;2023-03-14T11:26:23;98444.75;;;10.95;80.23
18765;BME280;9511;54.242;12.448;2023-03-14T11:28:57;98450.97;;;10.92;81.11
18765;BME280;9511;54.242;12.448;2023-03-14T11:31:26;98459.00;;;10.83;81.45
18765;BME280;9511;54.242;12.448;2023-03-14T11:34:01;98480.19;;;10.81;81.30
18765;BME280;9511;54.242;12.448;2023-03-14T11:36:38;98523.03;;;10.34;81.21
18765;BME280;9511;54.242;12.448;2023-03-14T11:39:11;98552.97;;;9.01;84.01
18765;BME280;9511;54.242;12.448;2023-03-14T11:41:43;98565.47;;;7.86;85.19
18765;BME280;9511;54.242;12.448;2023-03-14T11:44:17;98605.50;;;6.90;87.66
18765;BME280;9511;54.242;12.448;2023-03-14T11:46:48;98604.06;;;6.07;88.45
18765;BME280;9511;54.242;12.448;2023-03-14T11:49:26;98656.75;;;5.43;89.52
18765;BME280;9511;54.242;12.448;2023-03-14T11:51:59;98681.94;;;4.67;90.86
18765;BME280;9511;54.242;12.448;2023-03-14T11:54:35;98680.97;;;4.60;92.77
18765;BME280;9511;54.242;12.448;2023-03-14T11:57:10;98697.06;;;4.30;93.52
18765;BME280;9511;54.242;12.448;2023-03-14T11:59:47;98709.63;;;4.01;95.00
18765;BME280;9511;54.242;12.448;2023-03-14T12:02:22;98716.50;;;3.94;95.89
18765;BME280;9511;54.242;12.448;2023-03-14T12:08:10;98738.50;;;3.60;96.60
18765;BME280;9511;54.242;12.448;2023-03-14T12:10:40;98760.03;;;3.49;96.95
18765;BME280;9511;54.242;12.448;2023-03-14T12:13:10;98785.16;;;3.42;97.30
18765;BME280;9511;54.242;12.448;2023-03-14T12:15:40;98780.72;;;3.38;97.52
18765;BME280;9511;54.242;12.448;2023-03-14T12:18:19;98797.19;;;3.34;97.88
18765;BME280;9511;54.242;12.448;2023-03-14T12:20:53;98805.19;;;3.41;97.89
18765;BME280;9511;54.242;12.448;2023-03-14T12:23:21;98802.22;;;3.26;98.87
18765;BME280;9511;54.242;12.448;2023-03-14T12:26:12;98802.34;;;3.31;99.30
18765;BME280;9511;54.242;12.448;2023-03-14T12:28:43;98822.34;;;3.30;99.58
18765;BME280;9511;54.242;12.448;2023-03-14T12:31:35;98831.53;;;3.13;100.00
18765;BME280;9511;54.242;12.448;2023-03-14T12:34:29;98851.19;;;2.97;100.00
18765;BME280;9511;54.242;12.448;2023-03-14T12:36:58;98861.16;;;2.77;100.00
18765;BME280;9511;54.242;12.448;2023-03-14T12:39:35;98857.84;;;2.84;100.00
18765;BME280;9511;54.242;12.448;2023-03-14T12:42:08;98864.28;;;2.64;100.00
18765;BME280;9511;54.242;12.448;2023-03-14T12:44:43;98884.81;;;2.52;100.00
18765;BME280;9511;54.242;12.448;2023-03-14T12:47:51;98894.91;;;2.38;100.00
18765;BME280;9511;54.242;12.448;2023-03-14T12:50:24;98891.91;;;2.56;100.00
18765;BME280;9511;54.242;12.448;2023-03-14T12:56:21;98916.22;;;2.53;100.00
18765;BME280;9511;54.242;12.448;2023-03-14T12:58:58;98931.63;;;2.46;100.00
18765;BME280;9511;54.242;12.448;2023-03-14T13:01:33;98929.13;;;2.49;100.00
18765;BME280;9511;54.242;12.448;2023-03-14T13:04:04;98940.31;;;2.45;100.00
18765;BME280;9511;54.242;12.448;2023-03-14T13:06:47;98940.63;;;2.55;99.82
18765;BME280;9511;54.242;12.448;2023-03-14T13:12:29;98947.84;;;2.65;100.00
18765;BME280;9511;54.242;12.448;2023-03-14T13:14:59;98948.81;;;2.69;100.00
18765;BME280;9511;54.242;12.448;2023-03-14T13:17:31;98944.69;;;2.77;100.00
18765;BME280;9511;54.242;12.448;2023-03-14T13:20:03;98963.13;;;2.83;100.00
18765;BME280;9511;54.242;12.448;2023-03-14T13:22:33;98963.97;;;2.82;100.00
18765;BME280;9511;54.242;12.448;2023-03-14T13:25:04;98967.91;;;3.00;100.00
18765;BME280;9511;54.242;12.448;2023-03-14T13:27:34;98973.16;;;3.00;100.00
18765;BME280;9511;54.242;12.448;2023-03-14T13:30:14;98967.84;;;2.98;100.00
18765;BME280;9511;54.242;12.448;2023-03-14T13:32:44;98969.75;;;3.04;100.00
18765;BME280;9511;54.242;12.448;2023-03-14T13:35:18;98978.53;;;3.06;99.93
18765;BME280;9511;54.242;12.448;2023-03-14T13:37:46;98961.25;;;3.11;100.00
18765;BME280;9511;54.242;12.448;2023-03-14T13:40:24;98971.75;;;3.14;99.85
18765;BME280;9511;54.242;12.448;2023-03-14T13:43:05;98989.34;;;3.21;100.00
18765;BME280;9511;54.242;12.448;2023-03-14T13:45:44;98978.00;;;3.20;99.90
18765;BME280;9511;54.242;12.448;2023-03-14T13:48:12;98982.75;;;3.35;100.00
18765;BME280;9511;54.242;12.448;2023-03-14T13:50:45;98981.00;;;3.34;99.43
18765;BME280;9511;54.242;12.448;2023-03-14T13:53:13;99000.19;;;3.36;99.52
18765;BME280;9511;54.242;12.448;2023-03-14T13:55:40;99008.06;;;3.38;99.09
18765;BME280;9511;54.242;12.448;2023-03-14T13:58:19;99004.66;;;3.40;99.61
18765;BME280;9511;54.242;12.448;2023-03-14T14:00:58;99025.63;;;3.43;99.57
18765;BME280;9511;54.242;12.448;2023-03-14T14:03:27;99027.19;;;3.35;99.35
18765;BME280;9511;54.242;12.448;2023-03-14T14:05:56;99035.03;;;3.35;99.59
18765;BME280;9511;54.242;12.448;2023-03-14T14:08:25;99049.00;;;3.37;99.54
18765;BME280;9511;54.242;12.448;2023-03-14T14:10:58;99057.28;;;3.21;99.34
18765;BME280;9511;54.242;12.448;2023-03-14T14:13:31;99064.38;;;3.25;99.51
18765;BME280;9511;54.242;12.448;2023-03-14T14:16:00;99075.50;;;3.18;99.74
18765;BME280;9511;54.242;12.448;2023-03-14T14:18:30;99079.00;;;3.18;100.00
18765;BME280;9511;54.242;12.448;2023-03-14T14:20:59;99073.06;;;3.24;100.00
18765;BME280;9511;54.242;12.448;2023-03-14T14:23:28;99087.13;;;3.29;100.00
18765;BME280;9511;54.242;12.448;2023-03-14T14:25:58;99088.81;;;3.27;99.95
18765;BME280;9511;54.242;12.448;2023-03-14T14:28:29;99095.25;;;3.40;100.00
18765;BME280;9511;54.242;12.448;2023-03-14T14:31:01;99099.84;;;3.49;99.92
18765;BME280;9511;54.242;12.448;2023-03-14T14:33:29;99101.53;;;3.46;99.80
18765;BME280;9511;54.242;12.448;2023-03-14T14:35:57;99100.81;;;3.52;99.37
18765;BME280;9511;54.242;12.448;2023-03-14T14:38:26;99107.06;;;3.59;99.31
18765;BME280;9511;54.242;12.448;2023-03-14T14:40:59;99112.47;;;3.65;98.81
18765;BME280;9511;54.242;12.448;2023-03-14T14:43:30;99108.84;;;3.60;98.64
18765;BME280;9511;54.242;12.448;2023-03-14T14:46:01;99112.50;;;3.66;97.87
18765;BME280;9511;54.242;12.448;2023-03-14T14:48:36;99117.09;;;3.75;97.37
18765;BME280;9511;54.242;12.448;2023-03-14T14:51:05;99130.31;;;3.81;96.60
18765;BME280;9511;54.242;12.448;2023-03-14T14:53:37;99123.22;;;3.77;95.50
18765;BME280;9511;54.242;12.448;2023-03-14T14:56:08;99125.84;;;3.77;94.51
18765;BME280;9511;54.242;12.448;2023-03-14T14:58:45;99125.19;;;3.84;94.78
18765;BME280;9511;54.242;12.448;2023-03-14T15:01:15;99132.19;;;3.85;93.75
18765;BME280;9511;54.242;12.448;2023-03-14T15:03:45;99126.16;;;3.89;93.00
18765;BME280;9511;54.242;12.448;2023-03-14T15:06:15;99146.13;;;3.86;92.55
18765;BME280;9511;54.242;12.448;2023-03-14T15:08:44;99148.75;;;3.86;92.13
18765;BME280;9511;54.242;12.448;2023-03-14T15:11:16;99155.91;;;3.93;92.04
18765;BME280;9511;54.242;12.448;2023-03-14T15:13:45;99168.94;;;3.91;91.21
18765;BME280;9511;54.242;12.448;2023-03-14T15:16:14;99164.56;;;3.90;90.87
18765;BME280;9511;54.242;12.448;2023-03-14T15:18:42;99177.72;;;3.93;90.21
18765;BME280;9511;54.242;12.448;2023-03-14T15:21:10;99173.25;;;3.89;89.84
18765;BME280;9511;54.242;12.448;2023-03-14T15:23:38;99168.97;;;3.93;88.95
18765;BME280;9511;54.242;12.448;2023-03-14T15:26:11;99181.09;;;3.89;88.80
18765;BME280;9511;54.242;12.448;2023-03-14T15:28:40;99188.91;;;3.88;88.53
18765;BME280;9511;54.242;12.448;2023-03-14T15:31:10;99193.44;;;3.95;88.25
18765;BME280;9511;54.242;12.448;2023-03-14T15:33:38;99200.50;;;3.97;87.56
18765;BME280;9511;54.242;12.448;2023-03-14T15:36:10;99210.16;;;4.00;86.90
18765;BME280;9511;54.242;12.448;2023-03-14T15:38:41;99217.09;;;3.99;85.84
18765;BME280;9511;54.242;12.448;2023-03-14T15:41:09;99227.69;;;4.04;85.89
18765;BME280;9511;54.242;12.448;2023-03-14T15:43:36;99225.78;;;3.97;85.24
18765;BME280;9511;54.242;12.448;2023-03-14T15:46:04;99243.25;;;3.98;84.79
18765;BME280;9511;54.242;12.448;2023-03-14T15:48:33;99240.75;;;4.03;84.51
18765;BME280;9511;54.242;12.448;2023-03-14T15:51:00;99251.09;;;3.98;84.05
18765;BME280;9511;54.242;12.448;2023-03-14T15:53:28;99254.50;;;3.95;84.22
18765;BME280;9511;54.242;12.448;2023-03-14T15:55:55;99260.53;;;3.93;84.53
18765;BME280;9511;54.242;12.448;2023-03-14T15:58:22;99252.81;;;3.97;84.22
18765;BME280;9511;54.242;12.448;2023-03-14T16:00:50;99265.94;;;3.99;84.81
18765;BME280;9511;54.242;12.448;2023-03-14T16:03:17;99275.53;;;4.00;84.32
18765;BME280;9511;54.242;12.448;2023-03-14T16:05:46;99270.28;;;3.98;83.82
18765;BME280;9511;54.242;12.448;2023-03-14T16:08:13;99280.59;;;3.92;83.33
18765;BME280;9511;54.242;12.448;2023-03-14T16:10:40;99281.47;;;3.93;82.76
18765;BME280;9511;54.242;12.448;2023-03-14T16:13:08;99286.69;;;3.93;82.64
18765;BME280;9511;54.242;12.448;2023-03-14T16:15:35;99296.19;;;3.89;82.17
18765;BME280;9511;54.242;12.448;2023-03-14T16:18:03;99308.44;;;3.90;81.26
18765;BME280;9511;54.242;12.448;2023-03-14T16:20:30;99317.22;;;3.92;80.77
18765;BME280;9511;54.242;12.448;2023-03-14T16:22:59;99311.69;;;3.83;80.25
18765;BME280;9511;54.242;12.448;2023-03-14T16:25:26;99333.69;;;3.90;80.10
18765;BME280;9511;54.242;12.448;2023-03-14T16:27:53;99340.56;;;3.86;80.08
18765;BME280;9511;54.242;12.448;2023-03-14T16:30:22;99342.34;;;3.87;79.60
18765;BME280;9511;54.242;12.448;2023-03-14T16:32:49;99355.53;;;3.90;79.48
18765;BME280;9511;54.242;12.448;2023-03-14T16:35:16;99358.25;;;3.95;79.01
18765;BME280;9511;54.242;12.448;2023-03-14T16:37:44;99366.00;;;3.90;78.71
18765;BME280;9511;54.242;12.448;2023-03-14T16:40:13;99362.41;;;3.88;78.43
18765;BME280;9511;54.242;12.448;2023-03-14T16:42:40;99384.34;;;3.92;78.34
18765;BME280;9511;54.242;12.448;2023-03-14T16:45:08;99386.91;;;3.90;77.65
18765;BME280;9511;54.242;12.448;2023-03-14T16:47:36;99403.53;;;3.92;77.29
18765;BME280;9511;54.242;12.448;2023-03-14T16:50:04;99403.34;;;3.86;77.61
18765;BME280;9511;54.242;12.448;2023-03-14T16:52:31;99400.69;;;3.85;77.66
18765;BME280;9511;54.242;12.448;2023-03-14T16:54:59;99406.75;;;3.84;77.57
18765;BME280;9511;54.242;12.448;2023-03-14T16:57:27;99411.97;;;3.84;78.03
18765;BME280;9511;54.242;12.448;2023-03-14T16:59:55;99414.66;;;3.85;78.67
18765;BME280;9511;54.242;12.448;2023-03-14T17:02:22;99432.88;;;3.82;78.34
18765;BME280;9511;54.242;12.448;2023-03-14T17:04:50;99418.94;;;3.83;78.76
18765;BME280;9511;54.242;12.448;2023-03-14T17:07:17;99438.06;;;3.81;78.65
18765;BME280;9511;54.242;12.448;2023-03-14T17:09:47;99434.53;;;3.79;78.65
18765;BME280;9511;54.242;12.448;2023-03-14T17:12:14;99443.06;;;3.73;79.05
18765;BME280;9511;54.242;12.448;2023-03-14T17:14:43;99455.34;;;3.76;78.84
18765;BME280;9511;54.242;12.448;2023-03-14T17:17:10;99452.69;;;3.74;78.49
18765;BME280;9511;54.242;12.448;2023-03-14T17:19:38;99453.41;;;3.70;78.54
18765;BME280;9511;54.242;12.448;2023-03-14T17:22:05;99473.44;;;3.69;78.71
18765;BME280;9511;54.242;12.448;2023-03-14T17:24:32;99476.94;;;3.70;78.71
18765;BME280;9511;54.242;12.448;2023-03-14T17:26:59;99512.66;;;3.69;78.43
18765;BME280;9511;54.242;12.448;2023-03-14T17:29:27;99490.94;;;3.72;78.71
18765;BME280;9511;54.242;12.448;2023-03-14T17:31:55;99495.13;;;3.67;78.81
18765;BME280;9511;54.242;12.448;2023-03-14T17:34:23;99495.91;;;3.63;78.66
18765;BME280;9511;54.242;12.448;2023-03-14T17:36:50;99510.03;;;3.68;77.55
18765;BME280;9511;54.242;12.448;2023-03-14T17:39:17;99517.88;;;3.68;76.95
18765;BME280;9511;54.242;12.448;2023-03-14T17:41:45;99527.47;;;3.69;76.06